Keldron, South Dakota
Current Conditions -  °F | °C
As of 8:07 AM on Monday 24 Nov 2014 (Local Time) from KHEI Reporting Station
Scattered Clouds Scattered Clouds  
Wind Chill:   Ceiling: Unl
Heat Index: 16°   Visibility: 10mi
Dew Point: 12°   Wind: 13mph
Humidity: 84%   Direction: 310°NW
Pressure: 29.86"   Gusts: NA
Location:  45.93°N, 101.82°W
Report Text: KHEI 241507Z AUTO 31011KT 10SM SCT006 M09/M11 A2986 RMK AO2 T10891111
Loading
Personal Weather Stations






























Interactive Weather Map New forecast layout! Learn more

10-Day Weather Forecast

Advertisements
Track Severe Weather on mobile